createdAt,value
2018-06-10T00:00:42.325Z,99013.56
2018-06-10T00:03:10.942Z,99011.23
2018-06-10T00:05:39.527Z,99006.61
2018-06-10T00:08:08.225Z,99010.13
2018-06-10T00:10:37.474Z,99007.64
2018-06-10T00:13:06.113Z,99005.88
2018-06-10T00:15:34.759Z,99015.79
2018-06-10T00:18:03.371Z,99013.29
2018-06-10T00:20:32.028Z,99011.91
2018-06-10T00:23:00.657Z,99012.52
2018-06-10T00:25:29.379Z,99012.52
2018-06-10T00:27:58.058Z,99015.16
2018-06-10T00:30:26.665Z,99012.18
2018-06-10T00:32:55.305Z,99003.61
2018-06-10T00:35:24.024Z,99001.03
2018-06-10T00:37:52.665Z,99000.10
2018-06-10T00:40:21.385Z,99000.46
2018-06-10T00:42:50.042Z,98995.84
2018-06-10T00:45:18.741Z,98999.45
2018-06-10T00:47:47.412Z,98999.90
2018-06-10T00:50:16.097Z,98996.01
2018-06-10T00:52:44.796Z,99003.08
2018-06-10T00:55:13.451Z,98996.58
2018-06-10T00:57:42.065Z,99001.67
2018-06-10T01:00:10.714Z,98998.14
2018-06-10T01:02:39.317Z,98990.72
2018-06-10T01:05:07.913Z,98989.44
2018-06-10T01:07:36.595Z,98986.82
2018-06-10T01:10:05.287Z,98989.31
2018-06-10T01:12:33.926Z,98987.84
2018-06-10T01:15:02.561Z,98996.99
2018-06-10T01:17:31.202Z,98999.23
2018-06-10T01:19:59.866Z,99004.11
2018-06-10T01:22:28.481Z,99005.80
2018-06-10T01:24:57.098Z,99003.58
2018-06-10T01:27:25.729Z,99005.55
2018-06-10T01:29:54.374Z,99016.47
2018-06-10T01:32:23.089Z,99017.66
2018-06-10T01:34:51.685Z,99009.98
2018-06-10T01:37:20.260Z,99009.16
2018-06-10T01:39:48.831Z,99015.55
2018-06-10T01:42:17.446Z,99016.19
2018-06-10T01:44:46.353Z,99015.63
2018-06-10T01:47:15.006Z,99018.30
2018-06-10T01:49:43.628Z,99001.13
2018-06-10T01:52:12.243Z,98998.54
2018-06-10T01:54:40.877Z,99005.27
2018-06-10T01:57:09.507Z,99003.41
2018-06-10T01:59:38.091Z,99002.39
2018-06-10T02:02:06.745Z,98999.12
2018-06-10T02:04:35.365Z,98995.34
2018-06-10T02:07:03.998Z,98993.06
2018-06-10T02:09:32.609Z,98983.78
2018-06-10T02:12:01.227Z,98989.88
2018-06-10T02:14:36.050Z,98993.98
2018-06-10T02:17:04.880Z,98996.01
2018-06-10T02:19:33.466Z,98994.08
2018-06-10T02:22:02.666Z,98990.36
2018-06-10T02:24:32.245Z,98992.64
2018-06-10T02:27:00.822Z,98995.78
2018-06-10T02:29:29.460Z,99000.68
2018-06-10T02:31:58.093Z,98999.48
2018-06-10T02:34:26.685Z,98999.48
2018-06-10T02:36:55.806Z,99001.30
2018-06-10T02:39:24.737Z,99007.05
2018-06-10T02:41:53.362Z,99008.89
2018-06-10T02:44:21.997Z,99019.33
2018-06-10T02:46:50.631Z,99024.80
2018-06-10T02:49:19.216Z,99026.09
2018-06-10T02:51:47.820Z,99021.75
2018-06-10T02:54:16.444Z,99018.87
2018-06-10T02:56:45.088Z,99021.39
2018-06-10T02:59:13.784Z,99026.37
2018-06-10T03:01:42.381Z,99029.45
2018-06-10T03:04:10.976Z,99034.82
2018-06-10T03:06:39.590Z,99029.64
2018-06-10T03:09:08.331Z,99030.41
2018-06-10T03:11:36.953Z,99024.34
2018-06-10T03:14:05.622Z,99033.43
2018-06-10T03:16:34.256Z,99037.71
2018-06-10T03:19:02.888Z,99034.10
2018-06-10T03:21:31.518Z,99030.50
2018-06-10T03:24:00.139Z,99034.49
2018-06-10T03:26:28.845Z,99033.69
2018-06-10T03:28:57.660Z,99026.74
2018-06-10T03:31:26.275Z,99036.59
2018-06-10T03:33:54.880Z,99034.55
2018-06-10T03:36:23.540Z,99038.36
2018-06-10T03:38:52.133Z,99031.97
2018-06-10T03:41:20.720Z,99035.70
2018-06-10T03:43:49.365Z,99042.89
2018-06-10T03:46:17.930Z,99052.61
2018-06-10T03:48:46.559Z,99054.09
2018-06-10T03:51:15.235Z,99060.02
2018-06-10T03:53:43.784Z,99051.84
2018-06-10T03:56:12.516Z,99049.06
2018-06-10T03:58:41.124Z,99049.45
2018-06-10T04:01:09.709Z,99055.94
2018-06-10T04:03:38.301Z,99061.41
2018-06-10T04:06:06.960Z,99061.68
2018-06-10T04:08:35.609Z,99069.64
2018-06-10T04:11:04.211Z,99062.11
2018-06-10T04:13:32.850Z,99061.27
2018-06-10T04:16:01.453Z,99062.00
2018-06-10T04:18:30.054Z,99068.16
2018-06-10T04:20:58.649Z,99072.94
2018-06-10T04:23:27.277Z,99068.50
2018-06-10T04:25:55.869Z,99062.57
2018-06-10T04:28:25.424Z,99062.76
2018-06-10T04:30:54.009Z,99065.70
2018-06-10T04:33:22.644Z,99064.02
2018-06-10T04:35:51.289Z,99066.62
2018-06-10T04:38:19.889Z,99054.98
2018-06-10T04:40:48.478Z,99056.37
2018-06-10T04:43:17.095Z,99052.66
2018-06-10T04:45:45.715Z,99061.63
2018-06-10T04:48:14.330Z,99066.45
2018-06-10T04:50:42.978Z,99064.53
2018-06-10T04:53:11.666Z,99068.78
2018-06-10T04:55:40.381Z,99063.32
2018-06-10T04:58:09.046Z,99068.44
2018-06-10T05:00:37.615Z,99064.42
2018-06-10T05:03:06.332Z,99063.33
2018-06-10T05:05:34.946Z,99065.21
2018-06-10T05:08:03.585Z,99058.67
2018-06-10T05:10:32.209Z,99062.50
2018-06-10T05:13:00.824Z,99063.67
2018-06-10T05:15:29.434Z,99059.90
2018-06-10T05:17:58.017Z,99061.88
2018-06-10T05:20:26.709Z,99071.50
2018-06-10T05:22:55.310Z,99067.39
2018-06-10T05:25:24.074Z,99069.91
2018-06-10T05:27:52.781Z,99071.50
2018-06-10T05:30:21.350Z,99068.36
2018-06-10T05:32:50.132Z,99072.54
2018-06-10T05:35:18.797Z,99070.34
2018-06-10T05:37:47.417Z,99068.23
2018-06-10T05:40:16.047Z,99069.61
2018-06-10T05:42:44.740Z,99071.94
2018-06-10T05:45:13.642Z,99076.55
2018-06-10T05:47:42.237Z,99066.38
2018-06-10T05:50:10.978Z,99067.63
2018-06-10T05:52:39.673Z,99072.71
2018-06-10T05:55:08.304Z,99081.39
2018-06-10T05:57:37.006Z,99081.53
2018-06-10T06:00:05.990Z,99072.98
2018-06-10T06:02:34.648Z,99076.34
2018-06-10T06:05:03.267Z,99076.73
2018-06-10T06:07:32.035Z,99079.16
2018-06-10T06:10:00.695Z,99081.78
2018-06-10T06:12:29.342Z,99079.87
2018-06-10T06:14:57.944Z,99080.00
2018-06-10T06:17:26.638Z,99082.02
2018-06-10T06:19:55.323Z,99086.64
2018-06-10T06:22:23.967Z,99087.84
2018-06-10T06:24:52.638Z,99084.15
2018-06-10T06:27:21.342Z,99092.59
2018-06-10T06:29:49.920Z,99082.38
2018-06-10T06:32:18.607Z,99076.67
2018-06-10T06:34:47.261Z,99077.73
2018-06-10T06:37:15.881Z,99080.42
2018-06-10T06:39:44.588Z,99079.13
2018-06-10T06:42:13.232Z,99083.82
2018-06-10T06:44:41.862Z,99084.49
2018-06-10T06:47:10.545Z,99082.25
2018-06-10T06:49:39.164Z,99082.69
2018-06-10T06:52:07.814Z,99082.30
2018-06-10T06:54:36.485Z,99080.83
2018-06-10T06:57:05.166Z,99079.22
2018-06-10T06:59:33.877Z,99083.00
2018-06-10T07:02:02.594Z,99081.82
2018-06-10T07:04:31.230Z,99087.25
2018-06-10T07:06:59.895Z,99084.77
2018-06-10T07:09:32.179Z,99079.75
2018-06-10T07:12:00.971Z,99077.02
2018-06-10T07:14:29.608Z,99077.64
2018-06-10T07:16:59.596Z,99084.78
2018-06-10T07:19:28.331Z,99083.39
2018-06-10T07:21:57.079Z,99082.47
2018-06-10T07:24:25.777Z,99083.92
2018-06-10T07:26:54.432Z,99076.48
2018-06-10T07:29:23.060Z,99071.23
2018-06-10T07:31:52.744Z,99069.38
2018-06-10T07:34:21.370Z,99073.20
2018-06-10T07:36:50.077Z,99067.41
2018-06-10T07:39:18.766Z,99059.87
2018-06-10T07:41:47.420Z,99069.56
2018-06-10T07:44:16.064Z,99057.34
2018-06-10T07:46:44.724Z,99073.13
2018-06-10T07:49:13.353Z,99066.95
2018-06-10T07:51:41.954Z,99068.20
2018-06-10T07:54:10.592Z,99062.91
2018-06-10T07:56:39.182Z,99067.46
2018-06-10T07:59:07.861Z,99065.63
2018-06-10T08:01:36.538Z,99065.74
2018-06-10T08:04:05.234Z,99063.33
2018-06-10T08:06:33.890Z,99066.73
2018-06-10T08:09:02.764Z,99057.13
2018-06-10T08:11:31.448Z,99062.27
2018-06-10T08:14:00.075Z,99062.70
2018-06-10T08:16:28.739Z,99056.95
2018-06-10T08:18:57.767Z,99057.68
2018-06-10T08:21:26.455Z,99054.94
2018-06-10T08:23:55.145Z,99055.02
2018-06-10T08:26:24.609Z,99053.63
2018-06-10T08:29:04.142Z,99054.66
2018-06-10T08:31:32.890Z,99045.58
2018-06-10T08:34:01.543Z,99048.40
2018-06-10T08:36:32.076Z,99046.99
2018-06-10T08:39:01.320Z,99041.27
2018-06-10T08:41:31.748Z,99041.13
2018-06-10T08:44:00.423Z,99038.97
2018-06-10T08:46:29.174Z,99039.42
2018-06-10T08:48:57.822Z,99032.87
2018-06-10T08:51:28.123Z,99034.50
2018-06-10T08:53:56.780Z,99025.25
2018-06-10T08:56:26.854Z,99034.08
2018-06-10T08:58:55.955Z,99024.63
2018-06-10T09:01:24.905Z,99025.04
2018-06-10T09:16:43.599Z,99021.48
2018-06-10T09:19:12.207Z,99016.33
2018-06-10T09:21:41.017Z,99009.50
2018-06-10T09:24:10.157Z,99008.06
2018-06-10T09:26:38.786Z,99010.44
2018-06-10T09:29:07.494Z,99002.87
2018-06-10T09:31:36.127Z,98998.84
2018-06-10T09:34:04.882Z,99004.59
2018-06-10T09:36:33.545Z,98995.94
2018-06-10T09:39:02.350Z,98992.20
2018-06-10T09:41:31.018Z,98991.62
2018-06-10T09:43:59.693Z,98996.49
2018-06-10T09:46:29.446Z,98989.80
2018-06-10T09:48:58.257Z,98988.49
2018-06-10T09:51:26.915Z,98978.52
2018-06-10T09:53:55.992Z,98989.94
2018-06-10T09:56:25.395Z,98983.35
2018-06-10T09:58:54.305Z,98979.47
2018-06-10T10:01:23.167Z,98976.64
2018-06-10T10:03:51.847Z,98976.45
2018-06-10T10:06:20.535Z,98978.48
2018-06-10T10:08:49.188Z,98974.85
2018-06-10T10:11:17.802Z,98975.14
2018-06-10T10:13:46.445Z,98972.98
2018-06-10T10:16:15.074Z,98977.30
2018-06-10T10:18:45.811Z,98972.53
2018-06-10T10:21:14.496Z,98974.84
2018-06-10T10:23:43.132Z,98969.55
2018-06-10T10:26:11.770Z,98972.52
2018-06-10T10:28:40.380Z,98968.52
2018-06-10T10:31:09.148Z,98975.95
2018-06-10T10:33:37.749Z,98968.21
2018-06-10T10:36:06.368Z,98962.56
2018-06-10T10:38:35.091Z,98967.95
2018-06-10T10:41:03.697Z,98962.70
2018-06-10T10:43:32.318Z,98969.33
2018-06-10T10:46:00.954Z,98967.94
2018-06-10T10:48:29.560Z,98972.44
2018-06-10T10:50:59.583Z,98969.19
2018-06-10T10:53:28.228Z,98963.05
2018-06-10T10:56:00.580Z,98970.59
2018-06-10T10:58:29.257Z,98965.69
2018-06-10T11:00:57.846Z,98962.55
2018-06-10T11:03:33.245Z,98959.56
2018-06-10T11:06:01.843Z,98961.97
2018-06-10T11:08:31.138Z,98961.06
2018-06-10T11:10:59.763Z,98952.53
2018-06-10T11:13:28.396Z,98954.33
2018-06-10T11:15:57.018Z,98951.52
2018-06-10T11:18:25.646Z,98953.38
2018-06-10T11:20:54.247Z,98949.13
2018-06-10T11:23:25.216Z,98953.53
2018-06-10T11:25:55.381Z,98951.86
2018-06-10T11:28:24.525Z,98955.58
2018-06-10T11:30:53.594Z,98955.59
2018-06-10T11:33:22.926Z,98950.16
2018-06-10T11:35:51.591Z,98949.04
2018-06-10T11:38:20.221Z,98948.73
2018-06-10T11:40:48.937Z,98954.63
2018-06-10T11:43:17.537Z,98948.47
2018-06-10T11:45:46.244Z,98947.09
2018-06-10T11:48:14.822Z,98950.34
2018-06-10T11:50:44.541Z,98954.74
2018-06-10T11:53:13.137Z,98956.27
2018-06-10T11:55:41.804Z,98950.47
2018-06-10T11:58:10.452Z,98953.62
2018-06-10T12:00:39.106Z,98945.91
2018-06-10T12:03:07.732Z,98946.95
2018-06-10T12:05:36.346Z,98942.10
2018-06-10T12:08:05.166Z,98952.17
2018-06-10T12:10:33.750Z,98942.57
2018-06-10T12:13:02.443Z,98948.96
2018-06-10T12:15:31.098Z,98948.85
2018-06-10T12:17:59.683Z,98944.16
2018-06-10T12:20:28.297Z,98941.83
2018-06-10T12:22:57.128Z,98935.30
2018-06-10T12:25:25.699Z,98933.87
2018-06-10T12:27:54.333Z,98936.75
2018-06-10T12:40:03.195Z,98953.47
2018-06-10T12:42:31.926Z,98955.63
2018-06-10T12:45:00.610Z,98952.99
2018-06-10T12:47:29.277Z,98951.52
2018-06-10T12:49:57.862Z,98948.56
2018-06-10T12:52:26.460Z,98940.30
2018-06-10T12:54:55.158Z,98939.63
2018-06-10T12:57:23.778Z,98945.93
2018-06-10T12:59:56.028Z,98943.20
2018-06-10T13:02:24.585Z,98941.38
2018-06-10T13:04:53.239Z,98945.21
2018-06-10T13:07:22.768Z,98946.89
2018-06-10T13:09:55.366Z,98947.93
2018-06-10T13:12:24.129Z,98950.15
2018-06-10T13:14:52.774Z,98948.02
2018-06-10T13:17:21.416Z,98947.66
2018-06-10T13:19:50.098Z,98946.23
2018-06-10T13:22:18.751Z,98941.78
2018-06-10T13:24:47.397Z,98946.25
2018-06-10T13:27:16.061Z,98947.27
2018-06-10T13:29:44.704Z,98944.69
2018-06-10T13:32:13.354Z,98944.05
2018-06-10T13:34:41.967Z,98946.94
2018-06-10T13:37:10.597Z,98939.93
2018-06-10T13:39:43.583Z,98936.29
2018-06-10T13:42:12.261Z,98931.17
2018-06-10T13:44:40.856Z,98929.84
2018-06-10T13:47:09.564Z,98922.11
2018-06-10T13:49:38.182Z,98919.17
2018-06-10T13:52:06.853Z,98917.48
2018-06-10T13:54:35.574Z,98918.13
2018-06-10T13:57:04.226Z,98921.46
2018-06-10T13:59:32.923Z,98918.06
2018-06-10T14:02:01.765Z,98907.01
2018-06-10T14:04:30.421Z,98913.73
2018-06-10T14:06:59.057Z,98918.22
2018-06-10T14:09:27.703Z,98912.22
2018-06-10T14:11:57.939Z,98904.88
2018-06-10T14:14:26.555Z,98896.74
2018-06-10T14:16:55.183Z,98892.62
2018-06-10T14:19:23.833Z,98887.39
2018-06-10T14:21:52.480Z,98887.98
2018-06-10T14:24:21.102Z,98881.36
2018-06-10T14:26:49.765Z,98884.34
2018-06-10T14:29:18.386Z,98879.69
2018-06-10T14:31:48.062Z,98886.71
2018-06-10T14:34:16.742Z,98887.41
2018-06-10T14:36:45.363Z,98891.02
2018-06-10T14:39:14.047Z,98885.41
2018-06-10T14:41:42.781Z,98874.34
2018-06-10T14:44:11.570Z,98871.94
2018-06-10T14:46:40.226Z,98873.59
2018-06-10T14:49:08.881Z,98866.48
2018-06-10T14:51:37.511Z,98871.91
2018-06-10T14:54:06.118Z,98878.97
2018-06-10T14:56:34.763Z,98876.02
2018-06-10T14:59:03.421Z,98876.23
2018-06-10T15:01:32.039Z,98868.44
2018-06-10T15:04:00.808Z,98857.61
2018-06-10T15:06:29.677Z,98851.52
2018-06-10T15:08:58.370Z,98851.55
2018-06-10T15:11:27.077Z,98850.81
2018-06-10T15:13:56.097Z,98842.64
2018-06-10T15:16:24.738Z,98844.92
2018-06-10T15:18:54.000Z,98843.37
2018-06-10T15:21:22.998Z,98839.53
2018-06-10T15:23:51.799Z,98833.82
2018-06-10T15:26:23.787Z,98826.80
2018-06-10T15:28:53.191Z,98825.01
2018-06-10T15:31:21.907Z,98821.63
2018-06-10T15:33:50.507Z,98822.03
2018-06-10T15:36:20.176Z,98820.13
2018-06-10T15:38:48.819Z,98815.08
2018-06-10T15:41:17.493Z,98828.06
2018-06-10T15:43:46.509Z,98822.75
2018-06-10T15:46:15.156Z,98817.96
2018-06-10T15:48:43.853Z,98814.17
2018-06-10T15:51:12.534Z,98820.63
2018-06-10T15:53:41.290Z,98813.97
2018-06-10T15:56:09.915Z,98819.92
2018-06-10T15:58:38.968Z,98815.12
2018-06-10T16:01:08.256Z,98810.72
2018-06-10T16:03:38.219Z,98810.28
2018-06-10T16:06:07.001Z,98813.46
2018-06-10T16:08:35.812Z,98816.16
2018-06-10T16:11:05.227Z,98820.06
2018-06-10T16:13:33.965Z,98823.34
2018-06-10T16:16:02.710Z,98822.13
2018-06-10T16:18:31.479Z,98823.86
2018-06-10T16:21:00.258Z,98825.89
2018-06-10T16:23:29.062Z,98829.20
2018-06-10T16:25:58.799Z,98822.64
2018-06-10T16:28:28.532Z,98827.56
2018-06-10T16:30:57.326Z,98833.03
2018-06-10T16:33:26.230Z,98838.30
2018-06-10T16:35:54.984Z,98841.45
2018-06-10T16:38:23.694Z,98843.06
2018-06-10T16:40:52.519Z,98836.11
2018-06-10T16:43:21.306Z,98843.34
2018-06-10T16:45:50.080Z,98845.17
2018-06-10T16:48:18.805Z,98842.37
2018-06-10T16:50:47.605Z,98852.25
2018-06-10T16:53:16.331Z,98851.11
2018-06-10T16:55:45.040Z,98850.41
2018-06-10T16:58:13.866Z,98846.14
2018-06-10T17:00:42.695Z,98834.10
2018-06-10T17:03:11.382Z,98837.08
2018-06-10T17:05:40.106Z,98832.94
2018-06-10T17:08:08.936Z,98840.16
2018-06-10T17:10:37.586Z,98846.59
2018-06-10T17:13:06.251Z,98845.77
2018-06-10T17:15:34.930Z,98843.82
2018-06-10T17:18:04.155Z,98853.41
2018-06-10T17:20:32.920Z,98857.70
2018-06-10T17:23:01.595Z,98853.93
2018-06-10T17:25:30.242Z,98854.48
2018-06-10T17:27:58.988Z,98863.69
2018-06-10T17:30:28.928Z,98861.95
2018-06-10T17:32:57.589Z,98862.88
2018-06-10T17:35:26.255Z,98858.88
2018-06-10T17:37:54.948Z,98860.55
2018-06-10T17:40:23.546Z,98858.48
2018-06-10T17:42:52.209Z,98861.01
2018-06-10T17:45:20.894Z,98860.94
2018-06-10T17:47:49.556Z,98862.23
2018-06-10T17:50:18.261Z,98852.73
2018-06-10T17:52:47.003Z,98851.41
2018-06-10T17:55:15.745Z,98849.23
2018-06-10T17:57:44.357Z,98847.24
2018-06-10T18:00:13.026Z,98853.39
2018-06-10T18:02:41.715Z,98854.28
2018-06-10T18:05:10.406Z,98857.22
2018-06-10T18:07:39.040Z,98851.75
2018-06-10T18:10:07.822Z,98848.05
2018-06-10T18:12:36.637Z,98848.91
2018-06-10T18:15:05.372Z,98851.37
2018-06-10T18:17:34.078Z,98845.28
2018-06-10T18:20:03.146Z,98845.55
2018-06-10T18:22:31.835Z,98846.07
2018-06-10T18:25:00.503Z,98843.69
2018-06-10T18:27:29.190Z,98842.80
2018-06-10T18:29:57.870Z,98842.82
2018-06-10T18:32:26.539Z,98842.37
2018-06-10T18:34:55.181Z,98845.47
2018-06-10T18:37:24.563Z,98842.84
2018-06-10T18:39:53.260Z,98839.73
2018-06-10T18:42:21.902Z,98844.73
2018-06-10T18:44:50.610Z,98849.55
2018-06-10T18:47:19.344Z,98847.51
2018-06-10T18:49:48.047Z,98846.79
2018-06-10T18:52:16.711Z,98840.52
2018-06-10T18:54:45.366Z,98841.69
2018-06-10T18:57:14.056Z,98848.72
2018-06-10T18:59:42.762Z,98844.88
2018-06-10T19:02:11.481Z,98843.19
2018-06-10T19:04:40.286Z,98841.67
2018-06-10T19:07:09.002Z,98845.05
2018-06-10T19:09:37.739Z,98838.44
2018-06-10T19:12:06.523Z,98841.80
2018-06-10T19:14:35.291Z,98842.77
2018-06-10T19:17:04.136Z,98847.31
2018-06-10T19:19:32.792Z,98843.72
2018-06-10T19:22:01.576Z,98852.35
2018-06-10T19:24:30.232Z,98854.14
2018-06-10T19:26:58.923Z,98852.79
2018-06-10T19:29:27.606Z,98863.22
2018-06-10T19:31:56.274Z,98860.66
2018-06-10T19:34:25.469Z,98856.23
2018-06-10T19:36:54.229Z,98868.61
2018-06-10T19:39:22.931Z,98869.85
2018-06-10T19:41:51.611Z,98864.77
2018-06-10T19:44:20.299Z,98869.94
2018-06-10T19:46:49.035Z,98871.02
2018-06-10T19:49:17.703Z,98867.59
2018-06-10T19:51:46.431Z,98873.20
2018-06-10T19:54:15.726Z,98871.09
2018-06-10T19:56:44.457Z,98871.71
2018-06-10T19:59:13.205Z,98875.85
2018-06-10T20:01:41.886Z,98874.22
2018-06-10T20:04:10.578Z,98871.31
2018-06-10T20:06:39.330Z,98875.75
2018-06-10T20:09:08.423Z,98877.49
2018-06-10T20:11:37.090Z,98881.27
2018-06-10T20:14:05.748Z,98881.53
2018-06-10T20:16:34.461Z,98876.37
2018-06-10T20:19:03.156Z,98878.69
2018-06-10T20:21:31.862Z,98877.78
2018-06-10T20:24:00.660Z,98876.14
2018-06-10T20:26:29.364Z,98876.17
2018-06-10T20:28:58.099Z,98879.70
2018-06-10T20:31:26.875Z,98884.51
2018-06-10T20:33:56.145Z,98877.49
2018-06-10T20:36:24.897Z,98876.41
2018-06-10T20:38:53.501Z,98880.44
2018-06-10T20:41:22.142Z,98879.56
2018-06-10T20:43:51.465Z,98883.55
2018-06-10T20:46:21.758Z,98887.52
2018-06-10T20:48:50.389Z,98885.20
2018-06-10T20:51:19.623Z,98884.25
2018-06-10T20:53:48.279Z,98886.03
2018-06-10T20:56:16.925Z,98882.94
2018-06-10T20:58:45.556Z,98874.22
2018-06-10T21:01:14.193Z,98877.78
2018-06-10T21:03:42.831Z,98878.57
2018-06-10T21:06:11.448Z,98880.99
2018-06-10T21:08:40.109Z,98880.30
2018-06-10T21:11:08.777Z,98887.69
2018-06-10T21:13:37.407Z,98889.98
2018-06-10T21:16:06.083Z,98888.09
2018-06-10T21:18:34.706Z,98882.07
2018-06-10T21:21:03.366Z,98888.87
2018-06-10T21:23:32.048Z,98892.33
2018-06-10T21:26:00.637Z,98893.17
2018-06-10T21:28:29.239Z,98898.64
2018-06-10T21:30:57.851Z,98900.74
2018-06-10T21:33:26.503Z,98901.96
2018-06-10T21:35:55.137Z,98896.75
2018-06-10T21:38:24.162Z,98888.68
2018-06-10T21:40:52.816Z,98899.22
2018-06-10T21:43:21.441Z,98898.16
2018-06-10T21:45:50.057Z,98897.35
2018-06-10T21:48:18.741Z,98900.53
2018-06-10T21:50:47.336Z,98898.53
2018-06-10T21:53:15.987Z,98898.77
2018-06-10T21:55:44.662Z,98896.50
2018-06-10T21:58:13.286Z,98901.02
2018-06-10T22:00:42.016Z,98898.41
2018-06-10T22:03:10.648Z,98895.67
2018-06-10T22:05:39.263Z,98892.48
2018-06-10T22:08:07.892Z,98895.09
2018-06-10T22:10:36.568Z,98893.89
2018-06-10T22:13:05.173Z,98898.65
2018-06-10T22:15:33.790Z,98899.72
2018-06-10T22:18:02.446Z,98900.79
2018-06-10T22:20:31.047Z,98906.71
2018-06-10T22:22:59.639Z,98908.98
2018-06-10T22:25:28.359Z,98903.77
2018-06-10T22:27:56.977Z,98904.94
2018-06-10T22:30:25.604Z,98899.82
2018-06-10T22:32:54.249Z,98898.41
2018-06-10T22:35:22.879Z,98900.28
2018-06-10T22:37:51.473Z,98908.84
2018-06-10T22:40:20.169Z,98906.34
2018-06-10T22:42:48.746Z,98908.61
2018-06-10T22:45:17.329Z,98916.91
2018-06-10T22:47:45.953Z,98913.93
2018-06-10T22:50:14.713Z,98913.09
2018-06-10T22:52:43.488Z,98913.46
2018-06-10T22:55:12.824Z,98913.46
2018-06-10T22:57:41.412Z,98915.13
2018-06-10T23:00:10.034Z,98919.98
2018-06-10T23:02:38.625Z,98913.92
2018-06-10T23:05:07.252Z,98918.90
2018-06-10T23:07:35.862Z,98914.40
2018-06-10T23:10:04.521Z,98917.84
2018-06-10T23:12:33.094Z,98922.36
2018-06-10T23:15:01.660Z,98926.05
2018-06-10T23:17:30.307Z,98924.84
2018-06-10T23:19:58.882Z,98924.27
2018-06-10T23:22:27.481Z,98917.84
2018-06-10T23:24:56.074Z,98920.83
2018-06-10T23:27:24.661Z,98922.23
2018-06-10T23:29:53.312Z,98923.67
2018-06-10T23:32:21.979Z,98931.60
2018-06-10T23:34:50.559Z,98928.98
2018-06-10T23:37:19.130Z,98926.64
2018-06-10T23:39:47.685Z,98927.21
2018-06-10T23:42:16.261Z,98933.73
2018-06-10T23:44:44.845Z,98926.03
2018-06-10T23:47:13.404Z,98918.63
2018-06-10T23:49:42.009Z,98926.44
2018-06-10T23:52:10.585Z,98918.92
2018-06-10T23:54:39.154Z,98925.67
2018-06-10T23:57:07.741Z,98920.73
2018-06-10T23:59:36.315Z,98920.82
